createdAt,value
2023-12-30T00:00:32.146Z,53
2023-12-30T00:05:22.316Z,53
2023-12-30T00:10:18.899Z,53
2023-12-30T00:15:18.185Z,53
2023-12-30T00:20:14.483Z,53
2023-12-30T00:25:14.721Z,51
2023-12-30T00:30:15.371Z,53
2023-12-30T00:35:16.039Z,53
2023-12-30T00:40:27.487Z,53
2023-12-30T00:45:16.690Z,52
2023-12-30T00:50:22.930Z,52
2023-12-30T00:55:16.251Z,51
2023-12-30T01:00:18.434Z,52
2023-12-30T01:05:14.720Z,51
2023-12-30T01:10:15.236Z,52
2023-12-30T01:15:14.365Z,51
2023-12-30T01:20:18.956Z,52
2023-12-30T01:25:14.673Z,52
2023-12-30T01:30:23.599Z,52
2023-12-30T01:35:22.859Z,52
2023-12-30T01:40:18.249Z,52
2023-12-30T01:45:16.225Z,52
2023-12-30T01:50:20.117Z,51
2023-12-30T01:55:18.598Z,51
2023-12-30T02:00:24.671Z,52
2023-12-30T02:05:23.131Z,52
2023-12-30T02:10:20.301Z,52
2023-12-30T02:15:16.685Z,52
2023-12-30T02:20:23.346Z,52
2023-12-30T02:25:18.624Z,52
2023-12-30T02:30:17.334Z,52
2023-12-30T02:35:14.483Z,52
2023-12-30T02:40:18.941Z,51
2023-12-30T02:45:13.963Z,51
2023-12-30T02:50:16.765Z,52
2023-12-30T02:55:15.021Z,52
2023-12-30T03:00:16.467Z,52
2023-12-30T03:05:19.594Z,52
2023-12-30T03:10:24.984Z,50
2023-12-30T03:15:22.251Z,51
2023-12-30T03:20:24.511Z,52
2023-12-30T03:25:14.956Z,52
2023-12-30T03:30:20.239Z,52
2023-12-30T03:35:14.830Z,51
2023-12-30T03:40:20.332Z,52
2023-12-30T03:45:14.554Z,51
2023-12-30T03:50:19.089Z,51
2023-12-30T03:55:16.880Z,50
2023-12-30T04:00:27.014Z,51
2023-12-30T04:05:16.522Z,51
2023-12-30T04:10:19.288Z,51
2023-12-30T04:15:22.913Z,50
2023-12-30T04:20:15.954Z,51
2023-12-30T04:25:20.163Z,50
2023-12-30T04:30:16.255Z,51
2023-12-30T04:35:16.065Z,51
2023-12-30T04:40:16.804Z,50
2023-12-30T04:45:14.518Z,51
2023-12-30T04:50:14.987Z,51
2023-12-30T04:55:14.339Z,51
2023-12-30T05:00:20.100Z,51
2023-12-30T05:05:15.221Z,50
2023-12-30T05:10:16.909Z,51
2023-12-30T05:15:17.944Z,51
2023-12-30T05:20:18.631Z,50
2023-12-30T05:25:17.075Z,51
2023-12-30T05:30:22.123Z,51
2023-12-30T05:35:18.910Z,50
2023-12-30T05:40:16.371Z,50
2023-12-30T05:45:18.535Z,51
2023-12-30T05:50:18.824Z,50
2023-12-30T05:55:18.036Z,50
2023-12-30T06:00:16.302Z,51
2023-12-30T06:05:22.592Z,51
2023-12-30T06:10:19.556Z,51
2023-12-30T06:15:17.688Z,51
2023-12-30T06:20:17.175Z,50
2023-12-30T06:25:22.651Z,50
2023-12-30T06:30:14.755Z,50
2023-12-30T06:35:15.804Z,51
2023-12-30T06:40:16.355Z,51
2023-12-30T06:45:22.476Z,51
2023-12-30T06:50:14.841Z,51
2023-12-30T06:55:55.705Z,50
2023-12-30T07:00:16.750Z,51
2023-12-30T07:05:18.600Z,51
2023-12-30T07:10:17.020Z,50
2023-12-30T07:15:22.562Z,50
2023-12-30T07:20:20.865Z,51
2023-12-30T07:25:17.924Z,49
2023-12-30T07:30:18.061Z,51
2023-12-30T07:35:20.715Z,51
2023-12-30T07:40:25.135Z,50
2023-12-30T07:45:18.286Z,51
2023-12-30T07:50:15.285Z,51
2023-12-30T07:55:18.769Z,50
2023-12-30T08:00:20.031Z,51
2023-12-30T08:05:16.922Z,50
2023-12-30T08:10:24.282Z,51
2023-12-30T08:15:18.276Z,51
2023-12-30T08:20:15.065Z,52
2023-12-30T08:25:21.114Z,51
2023-12-30T08:30:18.070Z,51
2023-12-30T08:35:19.835Z,51
2023-12-30T08:40:22.427Z,51
2023-12-30T08:45:22.456Z,51
2023-12-30T08:50:18.921Z,50
2023-12-30T08:55:20.320Z,50
2023-12-30T09:00:24.816Z,52
2023-12-30T09:05:21.373Z,51
2023-12-30T09:10:16.696Z,51
2023-12-30T09:15:18.625Z,51
2023-12-30T09:20:14.715Z,51
2023-12-30T09:25:16.109Z,51
2023-12-30T09:30:15.048Z,51
2023-12-30T09:35:16.526Z,52
2023-12-30T09:40:19.381Z,52
2023-12-30T09:45:22.616Z,52
2023-12-30T09:50:18.526Z,53
2023-12-30T09:55:20.698Z,52
2023-12-30T10:00:14.904Z,52
2023-12-30T10:05:20.835Z,52
2023-12-30T10:10:20.060Z,53
2023-12-30T10:15:14.123Z,53
2023-12-30T10:20:19.255Z,53
2023-12-30T10:25:16.577Z,53
2023-12-30T10:30:16.801Z,52
2023-12-30T10:35:21.037Z,52
2023-12-30T10:40:17.267Z,52
2023-12-30T10:45:14.546Z,51
2023-12-30T10:50:17.200Z,51
2023-12-30T10:55:18.783Z,52
2023-12-30T11:00:16.034Z,53
2023-12-30T11:05:22.342Z,52
2023-12-30T11:10:16.996Z,52
2023-12-30T11:15:18.232Z,52
2023-12-30T11:20:20.503Z,54
2023-12-30T11:25:24.057Z,51
2023-12-30T11:30:16.351Z,52
2023-12-30T11:35:16.272Z,50
2023-12-30T11:40:20.661Z,51
2023-12-30T11:45:15.379Z,52
2023-12-30T11:50:17.031Z,52
2023-12-30T11:55:22.259Z,51
2023-12-30T12:00:18.505Z,52
2023-12-30T12:05:24.352Z,52
2023-12-30T12:10:18.877Z,50
2023-12-30T12:15:14.450Z,51
2023-12-30T12:20:18.651Z,52
2023-12-30T12:25:21.352Z,52
2023-12-30T12:30:14.438Z,52
2023-12-30T12:35:14.889Z,51
2023-12-30T12:40:18.640Z,51
2023-12-30T12:45:16.823Z,52
2023-12-30T12:50:19.302Z,51
2023-12-30T12:55:18.423Z,50
2023-12-30T13:00:20.598Z,51
2023-12-30T13:05:19.149Z,51
2023-12-30T13:10:21.362Z,52
2023-12-30T13:15:14.669Z,52
2023-12-30T13:20:22.705Z,53
2023-12-30T13:25:23.568Z,52
2023-12-30T13:30:14.716Z,52
2023-12-30T13:35:17.040Z,53
2023-12-30T13:40:16.980Z,54
2023-12-30T13:45:15.918Z,54
2023-12-30T13:50:23.234Z,53
2023-12-30T13:55:18.673Z,53
2023-12-30T14:00:16.675Z,53
2023-12-30T14:05:15.090Z,54
2023-12-30T14:10:14.877Z,52
2023-12-30T14:15:14.341Z,54
2023-12-30T14:20:17.399Z,52
2023-12-30T14:25:26.445Z,54
2023-12-30T14:30:32.130Z,55
2023-12-30T14:35:20.622Z,55
2023-12-30T14:40:19.377Z,55
2023-12-30T14:46:30.149Z,54
2023-12-30T14:51:03.256Z,54
2023-12-30T14:55:21.512Z,54
2023-12-30T15:02:36.907Z,53
2023-12-30T15:05:18.786Z,53
2023-12-30T15:10:18.670Z,52
2023-12-30T15:15:24.983Z,53
2023-12-30T15:20:15.983Z,53
2023-12-30T15:25:23.804Z,54
2023-12-30T15:30:17.728Z,53
2023-12-30T15:35:23.392Z,53
2023-12-30T15:40:14.914Z,53
2023-12-30T15:45:16.267Z,53
2023-12-30T15:50:17.507Z,54
2023-12-30T15:55:16.880Z,54
2023-12-30T16:00:15.964Z,54
2023-12-30T16:05:22.901Z,54
2023-12-30T16:10:13.993Z,54
2023-12-30T16:15:14.201Z,54
2023-12-30T16:20:16.575Z,54
2023-12-30T16:25:23.078Z,54
2023-12-30T16:30:18.436Z,54
2023-12-30T16:35:17.009Z,53
2023-12-30T16:40:14.251Z,54
2023-12-30T16:45:22.428Z,54
2023-12-30T16:50:18.857Z,55
2023-12-30T16:55:26.471Z,54
2023-12-30T17:00:14.883Z,54
2023-12-30T17:05:20.272Z,54
2023-12-30T17:10:23.022Z,54
2023-12-30T17:15:13.906Z,53
2023-12-30T17:20:14.181Z,54
2023-12-30T17:25:16.640Z,55
2023-12-30T17:30:17.087Z,54
2023-12-30T17:35:16.368Z,55
2023-12-30T17:40:18.991Z,54
2023-12-30T17:45:16.446Z,55
2023-12-30T17:50:14.308Z,55
2023-12-30T17:55:14.888Z,55
2023-12-30T18:00:14.013Z,55
2023-12-30T18:05:16.986Z,56
2023-12-30T18:10:16.511Z,55
2023-12-30T18:15:16.724Z,55
2023-12-30T18:20:19.450Z,54
2023-12-30T18:25:24.695Z,55
2023-12-30T18:30:17.204Z,55
2023-12-30T18:35:20.873Z,54
2023-12-30T18:40:18.071Z,54
2023-12-30T18:45:14.194Z,54
2023-12-30T18:50:14.548Z,54
2023-12-30T18:55:18.989Z,54
2023-12-30T19:00:16.116Z,54
2023-12-30T19:05:15.156Z,54
2023-12-30T19:10:18.662Z,55
2023-12-30T19:15:19.518Z,55
2023-12-30T19:20:25.855Z,53
2023-12-30T19:25:20.212Z,54
2023-12-30T19:30:14.364Z,55
2023-12-30T19:35:17.156Z,55
2023-12-30T19:40:16.951Z,55
2023-12-30T19:45:22.338Z,54
2023-12-30T19:50:14.358Z,55
2023-12-30T19:55:18.629Z,55
2023-12-30T20:00:14.881Z,55
2023-12-30T20:05:19.543Z,55
2023-12-30T20:10:14.067Z,55
2023-12-30T20:15:16.220Z,55
2023-12-30T20:20:19.353Z,55
2023-12-30T20:25:21.129Z,55
2023-12-30T20:30:14.628Z,55
2023-12-30T20:35:14.409Z,55
2023-12-30T20:40:17.018Z,55
2023-12-30T20:45:17.991Z,55
2023-12-30T20:50:16.520Z,55
2023-12-30T20:55:16.704Z,55
2023-12-30T21:00:16.962Z,55
2023-12-30T21:05:14.048Z,54
2023-12-30T21:10:16.354Z,53
2023-12-30T21:15:14.703Z,53
2023-12-30T21:20:15.876Z,53
2023-12-30T21:25:41.627Z,53
2023-12-30T21:30:18.703Z,53
2023-12-30T21:35:14.273Z,53
2023-12-30T21:40:18.573Z,53
2023-12-30T21:45:14.686Z,53
2023-12-30T21:50:18.658Z,53
2023-12-30T21:55:16.109Z,53
2023-12-30T22:00:14.194Z,54
2023-12-30T22:05:19.120Z,54
2023-12-30T22:10:24.185Z,54
2023-12-30T22:15:14.179Z,54
2023-12-30T22:20:19.048Z,53
2023-12-30T22:25:17.966Z,54
2023-12-30T22:30:19.152Z,55
2023-12-30T22:35:16.458Z,55
2023-12-30T22:40:18.419Z,54
2023-12-30T22:45:20.221Z,54
2023-12-30T22:50:25.772Z,54
2023-12-30T22:55:13.972Z,54
2023-12-30T23:00:20.459Z,54
2023-12-30T23:05:14.910Z,54
2023-12-30T23:10:15.942Z,54
2023-12-30T23:15:20.384Z,53
2023-12-30T23:20:20.474Z,53
2023-12-30T23:25:28.741Z,53
2023-12-30T23:30:19.897Z,54
2023-12-30T23:35:16.545Z,54
2023-12-30T23:40:19.117Z,54
2023-12-30T23:45:14.385Z,53
2023-12-30T23:50:16.261Z,54
2023-12-30T23:55:14.495Z,53
